Time;durP1;ratioP1;P1;durP2;ratioP2;P2;SDS_P1;SDS_P2;PMS_P1;PMS_P2;Temp;Humidity;BMP_temperature;BMP_pressure;BME280_temperature;BME280_humidity;BME280_pressure;Samples;Min_cycle;Max_cycle;Signal;HPM_P1;HPM_P2
2022/08/26 00:00:22;;;;;;;12.63;6.87;;;;;;;;;;5046706;28;20254;-77
2022/08/26 00:02:49;;;;;;;13.87;7.27;;;;;;;;;;5053335;28;20195;-77
2022/08/26 00:05:16;;;;;;;14.57;7.13;;;;;;;;;;5048520;28;20306;-79
2022/08/26 00:07:43;;;;;;;12.00;7.10;;;;;;;;;;5051226;28;20204;-78
2022/08/26 00:10:11;;;;;;;12.93;7.60;;;;;;;;;;5047969;28;20207;-78
2022/08/26 00:12:38;;;;;;;11.33;6.93;;;;;;;;;;5048294;28;20231;-78
2022/08/26 00:15:09;;;;;;;15.07;7.27;;;;;;;;;;5046307;28;20290;-78
2022/08/26 00:17:36;;;;;;;11.10;7.13;;;;;;;;;;5042305;28;20676;-78
2022/08/26 00:20:04;;;;;;;9.77;6.83;;;;;;;;;;5045226;28;20282;-78
2022/08/26 00:22:31;;;;;;;12.10;7.13;;;;;;;;;;5043473;28;20606;-79
2022/08/26 00:24:59;;;;;;;12.87;6.57;;;;;;;;;;5051390;28;20314;-77
2022/08/26 00:27:26;;;;;;;15.83;7.53;;;;;;;;;;5051203;28;20302;-78
2022/08/26 00:29:53;;;;;;;14.10;7.20;;;;;;;;;;5049736;28;20199;-78
2022/08/26 00:32:21;;;;;;;13.80;7.00;;;;;;;;;;5048131;28;20227;-78
2022/08/26 00:34:49;;;;;;;13.90;7.67;;;;;;;;;;5050401;28;20229;-78
2022/08/26 00:37:17;;;;;;;12.60;7.87;;;;;;;;;;5047164;28;20290;-78
2022/08/26 00:39:44;;;;;;;13.93;7.23;;;;;;;;;;5050345;28;20211;-78
2022/08/26 00:42:11;;;;;;;13.43;7.80;;;;;;;;;;5045602;28;20241;-78
2022/08/26 00:44:38;;;;;;;12.00;7.53;;;;;;;;;;5049666;28;20229;-78
2022/08/26 00:47:07;;;;;;;15.50;7.60;;;;;;;;;;5051845;28;20195;-77
2022/08/26 00:49:38;;;;;;;14.17;7.40;;;;;;;;;;5047778;28;20198;-79
2022/08/26 00:52:07;;;;;;;12.77;7.50;;;;;;;;;;5043863;28;20313;-78
2022/08/26 00:54:36;;;;;;;12.87;7.67;;;;;;;;;;5051181;28;20694;-77
2022/08/26 00:57:05;;;;;;;13.63;7.17;;;;;;;;;;5044114;28;20211;-78
2022/08/26 00:59:33;;;;;;;12.47;7.27;;;;;;;;;;5045051;28;20290;-79
2022/08/26 01:02:00;;;;;;;11.93;7.93;;;;;;;;;;5050243;28;20648;-77
2022/08/26 01:04:28;;;;;;;12.73;7.67;;;;;;;;;;5049492;28;20571;-77
2022/08/26 01:06:57;;;;;;;11.53;7.30;;;;;;;;;;5046742;28;20282;-78
2022/08/26 01:09:24;;;;;;;12.83;7.30;;;;;;;;;;5052235;28;20207;-78
2022/08/26 01:11:53;;;;;;;12.43;7.17;;;;;;;;;;5045718;28;20227;-77
2022/08/26 01:14:21;;;;;;;11.10;7.10;;;;;;;;;;5047038;28;20196;-77
2022/08/26 01:16:49;;;;;;;14.13;7.70;;;;;;;;;;5045453;28;20674;-77
2022/08/26 01:19:18;;;;;;;14.00;7.50;;;;;;;;;;5050262;28;20253;-77
2022/08/26 01:21:48;;;;;;;13.73;7.27;;;;;;;;;;5045757;28;20268;-77
2022/08/26 01:24:17;;;;;;;13.30;7.33;;;;;;;;;;5044733;28;20213;-77
2022/08/26 01:26:45;;;;;;;14.23;7.93;;;;;;;;;;5041339;28;20202;-77
2022/08/26 01:29:15;;;;;;;13.47;7.93;;;;;;;;;;5048412;28;20647;-77
2022/08/26 01:31:43;;;;;;;14.07;8.17;;;;;;;;;;5048313;28;20226;-78
2022/08/26 01:34:12;;;;;;;11.77;7.33;;;;;;;;;;5041911;28;20207;-78
2022/08/26 01:36:40;;;;;;;13.30;8.33;;;;;;;;;;5046561;28;20659;-78
2022/08/26 01:39:07;;;;;;;12.53;7.47;;;;;;;;;;5045765;28;20206;-77
2022/08/26 01:41:36;;;;;;;15.40;7.83;;;;;;;;;;5045470;28;20227;-78
2022/08/26 01:44:05;;;;;;;12.47;7.80;;;;;;;;;;5050015;28;20199;-78
2022/08/26 01:46:33;;;;;;;15.43;8.73;;;;;;;;;;5046242;28;20551;-77
2022/08/26 01:49:01;;;;;;;12.17;8.17;;;;;;;;;;5046410;28;20239;-77
2022/08/26 01:51:30;;;;;;;12.10;7.60;;;;;;;;;;5049126;28;20309;-77
2022/08/26 01:53:57;;;;;;;13.50;8.10;;;;;;;;;;5048888;28;20257;-76
2022/08/26 01:56:25;;;;;;;15.67;7.67;;;;;;;;;;5046411;28;20578;-77
2022/08/26 01:58:56;;;;;;;13.33;7.63;;;;;;;;;;5046474;28;20204;-78
2022/08/26 02:01:23;;;;;;;14.27;8.83;;;;;;;;;;5050056;28;20286;-77
2022/08/26 02:03:55;;;;;;;13.77;8.10;;;;;;;;;;5052167;28;20242;-78
2022/08/26 02:06:22;;;;;;;14.67;7.93;;;;;;;;;;5049897;28;20227;-77
2022/08/26 02:08:51;;;;;;;12.90;7.13;;;;;;;;;;5052738;28;20222;-78
2022/08/26 02:11:18;;;;;;;12.53;7.70;;;;;;;;;;5048489;28;20410;-78
2022/08/26 02:13:49;;;;;;;18.03;8.10;;;;;;;;;;5048869;28;20242;-77
2022/08/26 02:16:18;;;;;;;13.83;7.83;;;;;;;;;;5043287;28;20291;-78
2022/08/26 02:18:46;;;;;;;14.93;7.93;;;;;;;;;;5047337;28;20227;-78
2022/08/26 02:21:13;;;;;;;14.23;8.37;;;;;;;;;;5045294;28;20293;-78
2022/08/26 02:23:41;;;;;;;13.37;7.60;;;;;;;;;;5046934;28;20207;-78
2022/08/26 02:26:10;;;;;;;14.07;8.00;;;;;;;;;;5044068;28;20223;-77
2022/08/26 02:28:41;;;;;;;14.73;7.90;;;;;;;;;;5048639;28;20413;-78
2022/08/26 02:31:08;;;;;;;17.53;8.10;;;;;;;;;;5042258;28;20237;-76
2022/08/26 02:33:37;;;;;;;15.00;8.10;;;;;;;;;;5045384;28;20298;-78
2022/08/26 02:36:04;;;;;;;14.70;8.07;;;;;;;;;;5046314;28;20280;-78
2022/08/26 02:38:31;;;;;;;14.33;7.80;;;;;;;;;;5045230;28;20222;-78
2022/08/26 02:40:58;;;;;;;13.00;8.10;;;;;;;;;;5051245;28;20345;-77
2022/08/26 02:43:26;;;;;;;13.33;8.13;;;;;;;;;;5051764;28;20295;-78
2022/08/26 02:45:53;;;;;;;15.30;8.20;;;;;;;;;;5052725;28;20660;-78
2022/08/26 02:48:21;;;;;;;16.43;8.37;;;;;;;;;;5048607;28;20298;-78
2022/08/26 02:50:49;;;;;;;13.27;8.00;;;;;;;;;;5049023;28;20280;-78
2022/08/26 02:53:17;;;;;;;16.27;8.33;;;;;;;;;;5042598;28;20246;-77
2022/08/26 02:55:48;;;;;;;15.60;8.00;;;;;;;;;;5047531;28;20213;-78
2022/08/26 02:58:15;;;;;;;19.47;8.77;;;;;;;;;;5047488;28;20284;-77
2022/08/26 03:00:42;;;;;;;13.63;8.20;;;;;;;;;;5044736;28;20299;-78
2022/08/26 03:03:09;;;;;;;20.33;8.70;;;;;;;;;;5045043;28;20207;-78
2022/08/26 03:05:36;;;;;;;16.90;9.10;;;;;;;;;;5049408;28;20317;-77
2022/08/26 03:08:05;;;;;;;13.20;8.93;;;;;;;;;;5043276;28;20261;-78
2022/08/26 03:10:32;;;;;;;15.53;8.47;;;;;;;;;;5049423;28;20261;-78
2022/08/26 03:13:00;;;;;;;17.37;8.80;;;;;;;;;;5047143;28;20211;-77
2022/08/26 03:15:27;;;;;;;13.33;8.37;;;;;;;;;;5042266;28;20221;-77
2022/08/26 03:17:55;;;;;;;19.50;9.17;;;;;;;;;;5049676;28;20231;-78
2022/08/26 03:20:22;;;;;;;14.23;8.30;;;;;;;;;;5047295;28;20333;-78
2022/08/26 03:22:51;;;;;;;16.07;8.43;;;;;;;;;;5048141;28;20231;-78
2022/08/26 03:25:21;;;;;;;14.00;8.20;;;;;;;;;;5045528;28;20314;-77
2022/08/26 03:27:48;;;;;;;13.03;8.57;;;;;;;;;;5047951;28;20203;-78
2022/08/26 03:33:01;;;;;;;14.83;8.80;;;;;;;;;;5043308;28;20205;-78
2022/08/26 03:35:29;;;;;;;15.70;9.10;;;;;;;;;;5048029;28;20226;-78
2022/08/26 03:37:56;;;;;;;17.97;8.90;;;;;;;;;;5048261;28;20291;-77
2022/08/26 03:40:25;;;;;;;18.20;10.03;;;;;;;;;;5049148;28;20247;-77
2022/08/26 03:42:52;;;;;;;19.47;9.07;;;;;;;;;;5046300;28;20766;-77
2022/08/26 03:45:20;;;;;;;16.80;9.27;;;;;;;;;;5046705;28;20694;-78
2022/08/26 03:47:48;;;;;;;17.90;9.43;;;;;;;;;;5047898;28;20288;-77
2022/08/26 03:50:17;;;;;;;22.60;9.50;;;;;;;;;;5048471;28;20630;-77
2022/08/26 03:52:45;;;;;;;17.03;9.63;;;;;;;;;;5046648;28;20768;-77
2022/08/26 03:55:13;;;;;;;14.37;8.37;;;;;;;;;;5045198;28;20605;-78
2022/08/26 03:57:42;;;;;;;16.50;8.93;;;;;;;;;;5049215;28;20797;-78
2022/08/26 04:00:12;;;;;;;15.10;9.03;;;;;;;;;;5043947;28;20202;-78
2022/08/26 04:02:39;;;;;;;15.33;8.90;;;;;;;;;;5045288;28;20249;-77
2022/08/26 04:05:06;;;;;;;21.13;8.63;;;;;;;;;;5050428;28;20234;-78
2022/08/26 04:07:34;;;;;;;17.00;8.67;;;;;;;;;;5047474;28;20261;-78
2022/08/26 04:10:01;;;;;;;15.77;8.77;;;;;;;;;;5048238;28;20207;-77
2022/08/26 04:12:28;;;;;;;19.63;9.40;;;;;;;;;;5044790;28;20226;-78
2022/08/26 04:14:57;;;;;;;14.93;9.50;;;;;;;;;;5047312;28;20199;-78
2022/08/26 04:17:25;;;;;;;20.53;9.30;;;;;;;;;;5046163;28;20306;-78
2022/08/26 04:19:52;;;;;;;16.93;8.80;;;;;;;;;;5041778;28;20212;-78
2022/08/26 04:22:20;;;;;;;16.83;9.20;;;;;;;;;;5044506;28;20318;-77
2022/08/26 04:24:47;;;;;;;18.07;9.67;;;;;;;;;;5046566;28;20286;-78
2022/08/26 04:27:14;;;;;;;15.33;9.73;;;;;;;;;;5043374;28;20225;-78
2022/08/26 04:29:42;;;;;;;18.33;9.50;;;;;;;;;;5045627;28;20210;-78
2022/08/26 04:32:11;;;;;;;15.57;9.30;;;;;;;;;;5047876;28;20254;-78
2022/08/26 04:34:38;;;;;;;18.43;10.10;;;;;;;;;;5048668;28;20196;-78
2022/08/26 04:37:05;;;;;;;19.27;9.43;;;;;;;;;;5045953;28;20199;-78
2022/08/26 04:39:33;;;;;;;20.87;9.97;;;;;;;;;;5046818;28;20651;-78
2022/08/26 04:42:00;;;;;;;18.60;9.27;;;;;;;;;;5047776;28;20226;-77
2022/08/26 04:44:28;;;;;;;19.07;9.80;;;;;;;;;;5043560;28;20213;-77
2022/08/26 04:46:56;;;;;;;15.40;9.70;;;;;;;;;;5042181;28;20598;-77
2022/08/26 04:49:25;;;;;;;18.50;9.47;;;;;;;;;;5042710;28;20215;-78
2022/08/26 04:51:52;;;;;;;18.40;9.70;;;;;;;;;;5046023;28;20246;-77
2022/08/26 04:54:20;;;;;;;19.60;9.80;;;;;;;;;;5043014;28;20199;-77
2022/08/26 04:56:49;;;;;;;19.43;10.60;;;;;;;;;;5043873;28;20204;-77
2022/08/26 04:59:17;;;;;;;15.63;9.90;;;;;;;;;;5040902;28;20239;-77
2022/08/26 05:01:44;;;;;;;22.07;10.93;;;;;;;;;;5046837;28;20219;-78
2022/08/26 05:04:11;;;;;;;18.80;10.30;;;;;;;;;;5045756;28;20206;-77
2022/08/26 05:06:40;;;;;;;16.10;10.80;;;;;;;;;;5039292;28;20218;-77
2022/08/26 05:09:07;;;;;;;15.90;10.40;;;;;;;;;;5046697;28;20227;-77
2022/08/26 05:11:34;;;;;;;19.40;10.70;;;;;;;;;;5050520;28;20245;-77
2022/08/26 05:14:06;;;;;;;19.07;9.93;;;;;;;;;;5050506;28;20317;-78
2022/08/26 05:16:33;;;;;;;16.90;11.03;;;;;;;;;;5050433;28;20206;-78
2022/08/26 05:19:02;;;;;;;20.17;11.27;;;;;;;;;;5055377;28;20234;-77
2022/08/26 05:21:29;;;;;;;16.77;9.93;;;;;;;;;;5055746;28;20226;-79
2022/08/26 05:23:58;;;;;;;16.20;9.67;;;;;;;;;;5056341;28;20202;-77
2022/08/26 05:26:26;;;;;;;16.60;10.00;;;;;;;;;;5063342;28;20257;-77
2022/08/26 05:28:54;;;;;;;17.67;9.47;;;;;;;;;;5059704;28;20353;-79
2022/08/26 05:31:23;;;;;;;14.43;9.60;;;;;;;;;;5050219;28;20250;-78
2022/08/26 05:33:50;;;;;;;16.87;9.53;;;;;;;;;;5053519;28;20281;-79
2022/08/26 05:36:18;;;;;;;14.77;10.17;;;;;;;;;;5047867;28;20205;-77
2022/08/26 05:38:46;;;;;;;16.60;9.90;;;;;;;;;;5052895;28;20231;-78
2022/08/26 05:41:19;;;;;;;17.13;9.57;;;;;;;;;;5051070;28;20222;-77
2022/08/26 05:43:46;;;;;;;13.00;9.07;;;;;;;;;;5050193;28;20199;-77
2022/08/26 05:46:14;;;;;;;16.70;9.40;;;;;;;;;;5046732;28;20821;-76
2022/08/26 05:48:41;;;;;;;18.53;9.27;;;;;;;;;;5049712;28;20210;-78
2022/08/26 05:51:09;;;;;;;15.97;9.17;;;;;;;;;;5045242;28;20262;-78
2022/08/26 05:53:37;;;;;;;12.40;8.87;;;;;;;;;;5049149;28;20286;-77
2022/08/26 05:56:05;;;;;;;17.27;9.77;;;;;;;;;;5048170;28;20199;-77
2022/08/26 05:58:35;;;;;;;18.07;8.73;;;;;;;;;;5048001;28;20214;-77
2022/08/26 06:01:04;;;;;;;18.10;9.57;;;;;;;;;;5047963;28;20230;-78
2022/08/26 06:03:32;;;;;;;20.40;10.50;;;;;;;;;;5042491;28;20290;-77
2022/08/26 06:06:00;;;;;;;21.60;13.07;;;;;;;;;;5048982;28;20896;-78
2022/08/26 06:08:27;;;;;;;33.07;17.63;;;;;;;;;;5050942;28;20203;-78
2022/08/26 06:10:55;;;;;;;27.90;17.73;;;;;;;;;;5049463;28;20215;-78
2022/08/26 06:13:24;;;;;;;42.67;24.40;;;;;;;;;;5048815;28;20203;-77
2022/08/26 06:15:53;;;;;;;39.37;23.20;;;;;;;;;;5051351;28;20256;-78
2022/08/26 06:18:21;;;;;;;44.73;26.80;;;;;;;;;;5050978;28;20234;-77
2022/08/26 06:20:48;;;;;;;44.53;27.00;;;;;;;;;;5052289;28;20246;-78
2022/08/26 06:26:02;;;;;;;61.17;35.00;;;;;;;;;;5040038;28;20251;-76
2022/08/26 06:28:29;;;;;;;77.23;41.97;;;;;;;;;;5050656;28;20203;-76
2022/08/26 06:30:57;;;;;;;74.77;40.53;;;;;;;;;;5048316;28;20246;-77
2022/08/26 06:33:27;;;;;;;81.20;43.47;;;;;;;;;;5045148;28;20219;-77
2022/08/26 06:35:55;;;;;;;78.20;41.67;;;;;;;;;;5049162;28;20214;-76
2022/08/26 06:38:22;;;;;;;81.10;43.93;;;;;;;;;;5046380;28;20199;-76
2022/08/26 06:40:50;;;;;;;78.13;43.43;;;;;;;;;;5048382;28;20230;-76
2022/08/26 06:43:18;;;;;;;77.63;42.30;;;;;;;;;;5048261;28;20249;-77
2022/08/26 06:45:45;;;;;;;89.13;45.47;;;;;;;;;;5042677;28;20298;-77
2022/08/26 06:48:14;;;;;;;84.27;44.77;;;;;;;;;;5044406;28;20662;-76
2022/08/26 06:50:42;;;;;;;80.93;45.00;;;;;;;;;;5045463;28;20257;-75
2022/08/26 06:53:10;;;;;;;85.83;45.97;;;;;;;;;;5040613;28;20215;-77
2022/08/26 06:55:40;;;;;;;87.43;44.33;;;;;;;;;;5048680;28;20657;-77
2022/08/26 06:58:08;;;;;;;87.13;45.60;;;;;;;;;;5049179;28;20199;-77
2022/08/26 07:00:35;;;;;;;94.73;48.53;;;;;;;;;;5043864;28;20230;-77
2022/08/26 07:03:02;;;;;;;91.60;46.27;;;;;;;;;;5043807;28;20203;-77
2022/08/26 07:05:35;;;;;;;89.20;48.50;;;;;;;;;;5044583;28;20281;-76
2022/08/26 07:08:03;;;;;;;92.20;47.17;;;;;;;;;;5043429;28;20231;-77
2022/08/26 07:10:33;;;;;;;88.30;47.87;;;;;;;;;;5040828;28;20207;-76
2022/08/26 07:13:00;;;;;;;88.40;46.53;;;;;;;;;;5049752;28;21550;-76
2022/08/26 07:15:28;;;;;;;89.93;45.03;;;;;;;;;;5046949;28;20230;-77
2022/08/26 07:17:55;;;;;;;91.47;46.27;;;;;;;;;;5044461;28;20200;-77
2022/08/26 07:20:22;;;;;;;97.27;48.10;;;;;;;;;;5046170;28;20282;-77
2022/08/26 07:22:50;;;;;;;93.77;47.90;;;;;;;;;;5048322;28;20301;-76
2022/08/26 07:25:18;;;;;;;100.90;50.20;;;;;;;;;;5041003;28;20206;-76
2022/08/26 07:27:45;;;;;;;99.47;48.27;;;;;;;;;;5048409;28;20231;-77
2022/08/26 07:30:12;;;;;;;106.57;50.60;;;;;;;;;;5047357;28;20651;-77
2022/08/26 07:32:40;;;;;;;101.30;48.83;;;;;;;;;;5048686;28;20311;-77
2022/08/26 07:35:11;;;;;;;106.00;51.53;;;;;;;;;;5042789;28;20251;-77
2022/08/26 07:37:38;;;;;;;107.03;49.10;;;;;;;;;;5042523;28;20230;-77
2022/08/26 07:40:07;;;;;;;98.83;48.00;;;;;;;;;;5040048;28;20214;-77
2022/08/26 07:42:34;;;;;;;98.83;47.60;;;;;;;;;;5049232;28;20255;-76
2022/08/26 07:45:02;;;;;;;88.77;44.80;;;;;;;;;;5041519;28;20203;-76
2022/08/26 07:51:03;;;;;;;91.17;45.17;;;;;;;;;;5040269;28;20680;-77
2022/08/26 07:53:31;;;;;;;87.00;45.20;;;;;;;;;;5040731;28;20238;-77
2022/08/26 07:56:00;;;;;;;82.83;41.53;;;;;;;;;;5042740;28;20203;-77
2022/08/26 07:58:27;;;;;;;84.17;43.63;;;;;;;;;;5041659;28;20281;-76
2022/08/26 08:00:54;;;;;;;78.80;42.30;;;;;;;;;;5044534;28;20248;-76
2022/08/26 08:03:22;;;;;;;83.57;42.43;;;;;;;;;;5039994;28;20292;-76
2022/08/26 08:05:49;;;;;;;84.53;42.10;;;;;;;;;;5040795;28;20201;-77
2022/08/26 08:08:16;;;;;;;77.20;40.87;;;;;;;;;;5044405;28;20226;-76
2022/08/26 08:10:46;;;;;;;73.83;40.63;;;;;;;;;;5045310;28;20201;-76
2022/08/26 08:13:15;;;;;;;77.70;40.10;;;;;;;;;;5046766;28;20205;-76
2022/08/26 08:15:42;;;;;;;78.27;40.47;;;;;;;;;;5038929;28;20298;-76
2022/08/26 08:18:09;;;;;;;75.97;41.80;;;;;;;;;;5045240;28;20206;-76
2022/08/26 08:20:36;;;;;;;79.37;42.47;;;;;;;;;;5046434;28;20302;-77
2022/08/26 08:23:04;;;;;;;80.77;41.37;;;;;;;;;;5047960;28;20286;-76
2022/08/26 08:25:32;;;;;;;77.03;41.57;;;;;;;;;;5041102;28;20206;-76
2022/08/26 08:27:59;;;;;;;84.07;43.03;;;;;;;;;;5041300;28;20254;-76
2022/08/26 08:30:28;;;;;;;79.03;40.57;;;;;;;;;;5046723;28;20646;-76
2022/08/26 08:32:56;;;;;;;72.33;38.83;;;;;;;;;;5038823;28;20257;-76
2022/08/26 08:35:25;;;;;;;79.13;39.73;;;;;;;;;;5038673;28;20629;-77
2022/08/26 08:37:54;;;;;;;73.93;37.27;;;;;;;;;;5043651;28;20198;-77
2022/08/26 08:40:27;;;;;;;72.00;38.20;;;;;;;;;;5040255;28;20204;-77
2022/08/26 08:42:57;;;;;;;70.97;36.70;;;;;;;;;;5049997;28;20734;-77
2022/08/26 08:45:30;;;;;;;68.10;36.23;;;;;;;;;;5048156;28;20198;-77
2022/08/26 08:47:58;;;;;;;72.20;36.80;;;;;;;;;;5044063;28;20265;-77
2022/08/26 08:50:27;;;;;;;69.50;36.00;;;;;;;;;;5044996;28;20219;-76
2022/08/26 08:52:59;;;;;;;64.57;34.17;;;;;;;;;;5044322;28;20309;-76
2022/08/26 08:55:30;;;;;;;64.80;34.03;;;;;;;;;;5042225;28;20728;-77
2022/08/26 08:58:02;;;;;;;62.47;33.03;;;;;;;;;;5046767;28;20772;-77
2022/08/26 09:00:37;;;;;;;64.53;35.57;;;;;;;;;;5048039;28;20314;-77
2022/08/26 09:03:07;;;;;;;68.30;35.27;;;;;;;;;;5044637;28;20229;-77
2022/08/26 09:05:40;;;;;;;63.30;33.40;;;;;;;;;;5050065;28;20245;-78
2022/08/26 09:08:09;;;;;;;66.70;35.03;;;;;;;;;;5044415;28;20277;-77
2022/08/26 09:10:37;;;;;;;63.57;34.03;;;;;;;;;;5049057;28;20247;-77
2022/08/26 09:13:07;;;;;;;60.60;32.00;;;;;;;;;;5041990;28;20207;-77
2022/08/26 09:15:43;;;;;;;58.97;29.80;;;;;;;;;;5047955;28;20202;-77
2022/08/26 09:18:16;;;;;;;62.17;31.57;;;;;;;;;;5043466;28;20327;-78
2022/08/26 09:20:46;;;;;;;60.93;33.00;;;;;;;;;;5046136;28;20571;-78
2022/08/26 09:23:14;;;;;;;59.40;32.20;;;;;;;;;;5049327;28;20385;-78
2022/08/26 09:25:48;;;;;;;60.57;33.70;;;;;;;;;;5045465;28;20208;-76
2022/08/26 09:28:17;;;;;;;60.73;33.77;;;;;;;;;;5046563;28;20226;-77
2022/08/26 09:30:46;;;;;;;62.60;33.00;;;;;;;;;;5045442;28;20207;-77
2022/08/26 09:33:17;;;;;;;55.03;28.17;;;;;;;;;;5042907;28;20211;-77
2022/08/26 09:35:46;;;;;;;57.47;29.70;;;;;;;;;;5042807;28;20199;-77
2022/08/26 09:38:22;;;;;;;64.57;31.83;;;;;;;;;;5050569;28;20195;-78
2022/08/26 09:40:55;;;;;;;55.43;30.63;;;;;;;;;;5050165;28;20253;-77
2022/08/26 09:43:22;;;;;;;52.90;30.37;;;;;;;;;;5039857;28;20198;-76
2022/08/26 09:45:53;;;;;;;52.70;29.40;;;;;;;;;;5044912;28;20206;-77
2022/08/26 09:48:27;;;;;;;52.70;29.17;;;;;;;;;;5044649;28;20301;-76
2022/08/26 09:50:56;;;;;;;51.83;28.20;;;;;;;;;;5044728;28;20734;-77
2022/08/26 09:53:24;;;;;;;53.60;30.27;;;;;;;;;;5044784;28;20206;-77
2022/08/26 09:55:53;;;;;;;53.47;28.63;;;;;;;;;;5047903;28;20284;-77
2022/08/26 09:58:33;;;;;;;43.23;25.63;;;;;;;;;;5044068;28;20226;-76
2022/08/26 10:01:02;;;;;;;48.07;27.17;;;;;;;;;;5046831;28;20357;-77
2022/08/26 10:03:31;;;;;;;45.40;26.43;;;;;;;;;;5046020;28;20215;-77
2022/08/26 10:06:00;;;;;;;53.10;29.40;;;;;;;;;;5043248;28;20199;-77
2022/08/26 10:08:28;;;;;;;50.00;26.87;;;;;;;;;;5040838;28;20234;-77
2022/08/26 10:10:56;;;;;;;51.37;28.40;;;;;;;;;;5044424;28;20241;-77
2022/08/26 10:13:26;;;;;;;46.77;26.83;;;;;;;;;;5047790;28;20618;-78
2022/08/26 10:15:57;;;;;;;52.00;25.87;;;;;;;;;;5045871;28;20658;-77
2022/08/26 10:18:27;;;;;;;43.97;26.47;;;;;;;;;;5046943;28;20198;-77
2022/08/26 10:20:58;;;;;;;57.73;31.73;;;;;;;;;;5047070;28;20312;-78
2022/08/26 10:23:26;;;;;;;57.83;31.53;;;;;;;;;;5045955;28;20207;-78
2022/08/26 10:25:55;;;;;;;56.80;30.80;;;;;;;;;;5042626;28;20203;-77
2022/08/26 10:28:26;;;;;;;61.60;32.57;;;;;;;;;;5038780;28;20246;-77
2022/08/26 10:30:56;;;;;;;56.80;31.43;;;;;;;;;;5046496;28;20231;-78
2022/08/26 10:33:24;;;;;;;52.77;29.53;;;;;;;;;;5049087;28;20654;-78
2022/08/26 10:35:54;;;;;;;49.07;27.57;;;;;;;;;;5045118;28;20204;-76
2022/08/26 10:38:27;;;;;;;52.07;28.47;;;;;;;;;;5043791;28;20195;-76
2022/08/26 10:40:57;;;;;;;53.30;27.13;;;;;;;;;;5039406;28;20608;-77
2022/08/26 10:43:27;;;;;;;51.40;28.03;;;;;;;;;;5048519;28;20199;-77
2022/08/26 10:45:57;;;;;;;58.13;29.27;;;;;;;;;;5054527;28;20201;-77
2022/08/26 10:48:28;;;;;;;55.97;27.73;;;;;;;;;;5055485;28;20218;-77
2022/08/26 10:50:57;;;;;;;52.27;28.43;;;;;;;;;;5057350;28;20246;-77
2022/08/26 10:53:31;;;;;;;46.50;25.00;;;;;;;;;;5053624;28;20589;-77
2022/08/26 10:56:02;;;;;;;49.53;26.63;;;;;;;;;;5042560;28;20209;-77
2022/08/26 10:58:37;;;;;;;38.67;21.17;;;;;;;;;;5042226;28;20226;-77
2022/08/26 11:03:57;;;;;;;44.77;24.10;;;;;;;;;;5044610;28;20280;-77
2022/08/26 11:06:27;;;;;;;47.73;24.30;;;;;;;;;;5045121;28;20293;-76
2022/08/26 11:08:55;;;;;;;43.73;25.30;;;;;;;;;;5055366;28;20229;-77
2022/08/26 11:11:37;;;;;;;41.83;24.67;;;;;;;;;;4986982;28;20231;-77
2022/08/26 11:14:05;;;;;;;48.13;27.27;;;;;;;;;;5028441;28;20255;-77
2022/08/26 11:16:34;;;;;;;49.87;24.90;;;;;;;;;;5025527;28;20219;-78
2022/08/26 11:19:01;;;;;;;47.00;26.17;;;;;;;;;;5024447;28;20718;-79
2022/08/26 11:21:46;;;;;;;46.43;24.50;;;;;;;;;;5019356;28;20220;-78
2022/08/26 11:24:37;;;;;;;45.57;25.03;;;;;;;;;;5018316;28;20231;-78
2022/08/26 11:27:07;;;;;;;39.87;23.63;;;;;;;;;;5011628;28;20238;-78
2022/08/26 11:29:54;;;;;;;50.47;26.67;;;;;;;;;;5028373;28;20204;-78
2022/08/26 11:32:24;;;;;;;40.57;23.90;;;;;;;;;;5025773;28;20274;-78
2022/08/26 11:34:53;;;;;;;47.17;26.47;;;;;;;;;;5028173;28;20204;-78
2022/08/26 11:37:22;;;;;;;42.90;26.20;;;;;;;;;;5020673;28;20224;-77
2022/08/26 11:39:52;;;;;;;48.70;26.63;;;;;;;;;;5025340;28;20213;-78
2022/08/26 11:42:25;;;;;;;42.47;23.60;;;;;;;;;;5026299;28;20223;-78
2022/08/26 11:44:52;;;;;;;47.23;26.37;;;;;;;;;;5022095;28;20754;-79
2022/08/26 11:47:26;;;;;;;46.43;25.63;;;;;;;;;;5020145;28;20218;-78
2022/08/26 11:50:06;;;;;;;42.50;25.47;;;;;;;;;;5015284;28;20200;-77
2022/08/26 11:52:34;;;;;;;43.60;26.23;;;;;;;;;;5023573;28;20235;-77
2022/08/26 11:55:02;;;;;;;41.47;25.03;;;;;;;;;;5027191;28;20200;-77
2022/08/26 11:57:33;;;;;;;43.27;26.03;;;;;;;;;;5024277;28;20208;-77
2022/08/26 12:00:01;;;;;;;42.73;25.57;;;;;;;;;;5029654;28;20247;-78
2022/08/26 12:02:28;;;;;;;45.77;25.57;;;;;;;;;;5029639;28;20216;-78
2022/08/26 12:04:56;;;;;;;43.70;25.43;;;;;;;;;;5028224;28;20231;-77
2022/08/26 12:07:26;;;;;;;40.37;25.63;;;;;;;;;;5025205;28;20203;-78
2022/08/26 12:09:55;;;;;;;41.40;25.50;;;;;;;;;;5023099;28;20242;-79
2022/08/26 12:12:23;;;;;;;41.07;25.43;;;;;;;;;;5023468;28;20755;-78
2022/08/26 12:15:07;;;;;;;41.97;24.60;;;;;;;;;;5023885;28;20272;-78
2022/08/26 12:17:34;;;;;;;39.17;24.37;;;;;;;;;;5026327;28;20197;-77
2022/08/26 12:20:01;;;;;;;43.60;25.70;;;;;;;;;;5029467;28;20290;-79
2022/08/26 12:22:29;;;;;;;39.27;25.07;;;;;;;;;;5029321;28;20258;-77
2022/08/26 12:24:58;;;;;;;41.73;24.33;;;;;;;;;;5024671;28;20894;-76
2022/08/26 12:27:26;;;;;;;43.63;24.57;;;;;;;;;;5027834;28;20207;-77
2022/08/26 12:30:05;;;;;;;39.40;23.57;;;;;;;;;;5026239;28;20196;-77
2022/08/26 12:32:34;;;;;;;46.53;25.17;;;;;;;;;;5025546;28;20663;-78
2022/08/26 12:35:02;;;;;;;40.00;23.53;;;;;;;;;;5030601;28;20204;-77
2022/08/26 12:37:30;;;;;;;40.63;23.00;;;;;;;;;;5028645;28;20580;-77
2022/08/26 12:40:18;;;;;;;40.93;22.60;;;;;;;;;;5028885;28;21138;-77
2022/08/26 12:42:45;;;;;;;40.43;23.83;;;;;;;;;;5030105;28;20223;-77
2022/08/26 12:45:12;;;;;;;39.23;24.53;;;;;;;;;;5029476;28;20204;-76
2022/08/26 12:47:42;;;;;;;38.50;23.83;;;;;;;;;;5024554;28;20212;-77
2022/08/26 12:50:10;;;;;;;41.73;24.40;;;;;;;;;;5029532;28;20323;-79
2022/08/26 12:52:55;;;;;;;37.10;23.47;;;;;;;;;;5028622;28;20251;-77
2022/08/26 12:55:27;;;;;;;37.97;24.20;;;;;;;;;;5019484;28;20288;-77
2022/08/26 12:58:09;;;;;;;38.63;23.87;;;;;;;;;;5022718;28;20196;-77
2022/08/26 13:00:40;;;;;;;43.27;24.93;;;;;;;;;;5022372;28;20208;-77
2022/08/26 13:03:22;;;;;;;37.23;23.87;;;;;;;;;;5020732;28;20212;-76
2022/08/26 13:05:51;;;;;;;42.33;23.20;;;;;;;;;;5024043;28;20681;-77
2022/08/26 13:08:26;;;;;;;46.03;24.40;;;;;;;;;;5024050;28;22344;-76
2022/08/26 13:11:05;;;;;;;41.13;25.00;;;;;;;;;;5026316;28;20225;-77
2022/08/26 13:13:32;;;;;;;41.17;24.00;;;;;;;;;;5026422;28;20223;-76
2022/08/26 13:16:02;;;;;;;38.47;22.93;;;;;;;;;;5028749;28;20204;-77
2022/08/26 13:18:29;;;;;;;35.67;22.00;;;;;;;;;;5023166;28;20204;-77
2022/08/26 13:20:58;;;;;;;37.90;22.93;;;;;;;;;;5026219;28;20303;-76
2022/08/26 13:23:25;;;;;;;37.57;23.60;;;;;;;;;;5023427;28;20319;-78
2022/08/26 13:25:52;;;;;;;36.43;22.70;;;;;;;;;;5027059;28;20232;-76
2022/08/26 13:28:20;;;;;;;38.17;23.10;;;;;;;;;;5030823;28;20292;-77
2022/08/26 13:30:48;;;;;;;35.23;22.77;;;;;;;;;;5028688;28;20231;-75
2022/08/26 13:33:17;;;;;;;33.53;21.60;;;;;;;;;;5024971;28;20208;-78
2022/08/26 13:35:44;;;;;;;33.13;20.87;;;;;;;;;;5029966;28;20208;-77
2022/08/26 13:38:13;;;;;;;33.97;20.20;;;;;;;;;;5025556;28;20205;-77
2022/08/26 13:40:43;;;;;;;34.63;20.10;;;;;;;;;;5025634;28;20297;-76
2022/08/26 13:43:11;;;;;;;32.70;19.77;;;;;;;;;;5023353;28;20213;-76
2022/08/26 13:45:41;;;;;;;37.07;21.40;;;;;;;;;;5022569;28;20237;-75
2022/08/26 13:48:08;;;;;;;32.43;20.07;;;;;;;;;;5020670;28;20237;-77
2022/08/26 13:50:36;;;;;;;33.27;19.90;;;;;;;;;;5023484;28;20209;-75
2022/08/26 13:53:03;;;;;;;32.97;21.97;;;;;;;;;;5026798;28;20623;-77
2022/08/26 13:55:32;;;;;;;30.43;19.87;;;;;;;;;;5027236;28;20333;-77
2022/08/26 13:57:59;;;;;;;31.27;19.93;;;;;;;;;;5027032;28;20300;-75
2022/08/26 14:00:27;;;;;;;35.03;20.50;;;;;;;;;;5030482;28;20206;-78
2022/08/26 14:02:54;;;;;;;27.90;19.70;;;;;;;;;;5027819;28;20595;-76
2022/08/26 14:05:21;;;;;;;30.17;19.17;;;;;;;;;;5017484;28;20282;-78
2022/08/26 14:07:49;;;;;;;30.47;17.90;;;;;;;;;;5017260;28;20257;-75
2022/08/26 14:10:16;;;;;;;27.63;18.00;;;;;;;;;;5019983;28;20226;-75
2022/08/26 14:12:45;;;;;;;28.73;18.17;;;;;;;;;;5018871;28;20222;-75
2022/08/26 14:15:15;;;;;;;34.70;18.00;;;;;;;;;;5019647;28;22368;-77
2022/08/26 14:17:43;;;;;;;26.67;16.83;;;;;;;;;;5023881;28;20223;-77
2022/08/26 14:20:12;;;;;;;26.50;16.20;;;;;;;;;;5025434;28;20199;-78
2022/08/26 14:22:41;;;;;;;18.27;11.43;;;;;;;;;;5029120;28;20649;-77
2022/08/26 14:25:09;;;;;;;22.40;10.03;;;;;;;;;;5023996;28;20218;-75
2022/08/26 14:27:36;;;;;;;23.23;11.27;;;;;;;;;;5024619;28;20210;-77
2022/08/26 14:30:04;;;;;;;16.93;10.80;;;;;;;;;;5025129;28;20238;-76
2022/08/26 14:32:32;;;;;;;12.03;8.63;;;;;;;;;;5026380;28;20730;-75
2022/08/26 14:34:59;;;;;;;11.90;8.23;;;;;;;;;;5026152;28;20214;-75
2022/08/26 14:37:26;;;;;;;14.30;9.30;;;;;;;;;;5021241;28;20683;-77
2022/08/26 14:39:54;;;;;;;17.97;10.90;;;;;;;;;;5025356;28;20196;-77
2022/08/26 14:42:23;;;;;;;12.20;9.00;;;;;;;;;;5026070;28;20216;-77